sensor_id;sensor_type;location;lat;lon;timestamp;pressure;altitude;pressure_sealevel;temperature;humidity
78431;BME280;67727;50.236;22.452;2023-12-20T00:01:40;99195.31;;;3.50;70.22
78431;BME280;67727;50.236;22.452;2023-12-20T00:04:06;99191.96;;;3.50;70.40
78431;BME280;67727;50.236;22.452;2023-12-20T00:06:32;99195.81;;;3.50;70.40
78431;BME280;67727;50.236;22.452;2023-12-20T00:08:58;99191.64;;;3.50;69.90
78431;BME280;67727;50.236;22.452;2023-12-20T00:11:24;99188.67;;;3.50;69.73
78431;BME280;67727;50.236;22.452;2023-12-20T00:13:51;99186.43;;;3.49;70.06
78431;BME280;67727;50.236;22.452;2023-12-20T00:16:17;99189.58;;;3.49;70.10
78431;BME280;67727;50.236;22.452;2023-12-20T00:18:43;99178.91;;;3.50;70.09
78431;BME280;67727;50.236;22.452;2023-12-20T00:21:10;99172.07;;;3.50;70.10
78431;BME280;67727;50.236;22.452;2023-12-20T00:23:36;99168.95;;;3.52;70.03
78431;BME280;67727;50.236;22.452;2023-12-20T00:26:02;99168.57;;;3.53;70.07
78431;BME280;67727;50.236;22.452;2023-12-20T00:28:28;99165.79;;;3.56;70.02
78431;BME280;67727;50.236;22.452;2023-12-20T00:30:54;99162.73;;;3.59;69.88
78431;BME280;67727;50.236;22.452;2023-12-20T00:33:20;99158.39;;;3.62;69.60
78431;BME280;67727;50.236;22.452;2023-12-20T00:35:47;99155.58;;;3.64;69.74
78431;BME280;67727;50.236;22.452;2023-12-20T00:38:13;99152.66;;;3.65;69.41
78431;BME280;67727;50.236;22.452;2023-12-20T00:40:39;99146.69;;;3.67;69.66
78431;BME280;67727;50.236;22.452;2023-12-20T00:43:05;99147.61;;;3.68;69.66
78431;BME280;67727;50.236;22.452;2023-12-20T00:45:31;99147.51;;;3.68;69.58
78431;BME280;67727;50.236;22.452;2023-12-20T00:47:57;99145.41;;;3.68;69.39
78431;BME280;67727;50.236;22.452;2023-12-20T00:50:25;99142.36;;;3.67;69.79
78431;BME280;67727;50.236;22.452;2023-12-20T00:52:51;99139.14;;;3.66;69.48
78431;BME280;67727;50.236;22.452;2023-12-20T00:55:17;99133.99;;;3.65;69.64
78431;BME280;67727;50.236;22.452;2023-12-20T00:57:43;99131.08;;;3.65;69.70
78431;BME280;67727;50.236;22.452;2023-12-20T01:00:09;99128.31;;;3.64;69.50
78431;BME280;67727;50.236;22.452;2023-12-20T01:02:36;99125.16;;;3.64;69.52
78431;BME280;67727;50.236;22.452;2023-12-20T01:05:02;99127.71;;;3.67;69.34
78431;BME280;67727;50.236;22.452;2023-12-20T01:07:28;99127.09;;;3.69;69.59
78431;BME280;67727;50.236;22.452;2023-12-20T01:09:54;99121.89;;;3.73;69.76
78431;BME280;67727;50.236;22.452;2023-12-20T01:12:21;99122.48;;;3.76;69.26
78431;BME280;67727;50.236;22.452;2023-12-20T01:14:47;99120.53;;;3.78;69.13
78431;BME280;67727;50.236;22.452;2023-12-20T01:17:13;99117.87;;;3.80;69.25
78431;BME280;67727;50.236;22.452;2023-12-20T01:19:39;99113.90;;;3.79;68.95
78431;BME280;67727;50.236;22.452;2023-12-20T01:22:05;99109.64;;;3.80;68.97
78431;BME280;67727;50.236;22.452;2023-12-20T01:24:31;99106.44;;;3.80;69.00
78431;BME280;67727;50.236;22.452;2023-12-20T01:26:57;99103.85;;;3.80;68.97
78431;BME280;67727;50.236;22.452;2023-12-20T01:29:24;99103.73;;;3.80;68.75
78431;BME280;67727;50.236;22.452;2023-12-20T01:31:50;99098.11;;;3.78;69.03
78431;BME280;67727;50.236;22.452;2023-12-20T01:34:17;99093.84;;;3.77;69.07
78431;BME280;67727;50.236;22.452;2023-12-20T01:36:43;99088.45;;;3.77;68.96
78431;BME280;67727;50.236;22.452;2023-12-20T01:39:09;99085.23;;;3.78;68.86
78431;BME280;67727;50.236;22.452;2023-12-20T01:41:35;99085.44;;;3.81;68.79
78431;BME280;67727;50.236;22.452;2023-12-20T01:44:02;99084.80;;;3.84;68.71
78431;BME280;67727;50.236;22.452;2023-12-20T01:46:28;99080.19;;;3.86;68.70
78431;BME280;67727;50.236;22.452;2023-12-20T01:48:54;99075.41;;;3.87;68.59
78431;BME280;67727;50.236;22.452;2023-12-20T01:51:21;99073.67;;;3.87;68.77
78431;BME280;67727;50.236;22.452;2023-12-20T01:53:48;99072.49;;;3.86;68.75
78431;BME280;67727;50.236;22.452;2023-12-20T01:56:16;99071.50;;;3.86;68.56
78431;BME280;67727;50.236;22.452;2023-12-20T01:58:44;99062.67;;;3.83;68.61
78431;BME280;67727;50.236;22.452;2023-12-20T02:01:12;99064.66;;;3.83;68.46
78431;BME280;67727;50.236;22.452;2023-12-20T02:03:41;99063.11;;;3.80;68.59
78431;BME280;67727;50.236;22.452;2023-12-20T02:06:08;99057.89;;;3.78;68.85
78431;BME280;67727;50.236;22.452;2023-12-20T02:08:35;99054.83;;;3.76;68.70
78431;BME280;67727;50.236;22.452;2023-12-20T02:11:02;99050.90;;;3.75;68.91
78431;BME280;67727;50.236;22.452;2023-12-20T02:13:28;99047.20;;;3.73;68.76
78431;BME280;67727;50.236;22.452;2023-12-20T02:15:55;99044.64;;;3.75;68.51
78431;BME280;67727;50.236;22.452;2023-12-20T02:18:21;99046.30;;;3.75;68.64
78431;BME280;67727;50.236;22.452;2023-12-20T02:20:48;99045.50;;;3.76;68.63
78431;BME280;67727;50.236;22.452;2023-12-20T02:23:14;99047.02;;;3.77;68.51
78431;BME280;67727;50.236;22.452;2023-12-20T02:25:40;99046.64;;;3.75;68.69
78431;BME280;67727;50.236;22.452;2023-12-20T02:28:06;99042.65;;;3.75;68.50
78431;BME280;67727;50.236;22.452;2023-12-20T02:30:32;99037.66;;;3.73;68.58
78431;BME280;67727;50.236;22.452;2023-12-20T02:33:03;99033.71;;;3.70;68.53
78431;BME280;67727;50.236;22.452;2023-12-20T02:35:33;99031.55;;;3.66;68.76
78431;BME280;67727;50.236;22.452;2023-12-20T02:37:59;99026.09;;;3.62;68.75
78431;BME280;67727;50.236;22.452;2023-12-20T02:40:25;99021.29;;;3.60;68.92
78431;BME280;67727;50.236;22.452;2023-12-20T02:42:51;99019.52;;;3.56;68.98
78431;BME280;67727;50.236;22.452;2023-12-20T02:45:18;99018.56;;;3.53;68.94
78431;BME280;67727;50.236;22.452;2023-12-20T02:47:44;99019.16;;;3.53;69.06
78431;BME280;67727;50.236;22.452;2023-12-20T02:50:10;99018.55;;;3.51;68.71
78431;BME280;67727;50.236;22.452;2023-12-20T02:52:36;99018.52;;;3.52;68.52
78431;BME280;67727;50.236;22.452;2023-12-20T02:55:02;99015.85;;;3.52;68.59
78431;BME280;67727;50.236;22.452;2023-12-20T02:57:28;99009.55;;;3.52;68.49
78431;BME280;67727;50.236;22.452;2023-12-20T02:59:55;99009.55;;;3.52;68.59
78431;BME280;67727;50.236;22.452;2023-12-20T03:02:21;99005.48;;;3.51;68.77
78431;BME280;67727;50.236;22.452;2023-12-20T03:04:47;99000.55;;;3.50;68.80
78431;BME280;67727;50.236;22.452;2023-12-20T03:07:13;99003.23;;;3.47;68.71
78431;BME280;67727;50.236;22.452;2023-12-20T03:09:39;98999.98;;;3.45;68.78
78431;BME280;67727;50.236;22.452;2023-12-20T03:12:05;98995.16;;;3.42;68.87
78431;BME280;67727;50.236;22.452;2023-12-20T03:14:31;98993.11;;;3.39;69.10
78431;BME280;67727;50.236;22.452;2023-12-20T03:16:57;98990.45;;;3.36;69.29
78431;BME280;67727;50.236;22.452;2023-12-20T03:19:24;98993.13;;;3.31;69.47
78431;BME280;67727;50.236;22.452;2023-12-20T03:21:50;98991.52;;;3.28;69.62
78431;BME280;67727;50.236;22.452;2023-12-20T03:24:16;98985.40;;;3.24;69.69
78431;BME280;67727;50.236;22.452;2023-12-20T03:26:42;98988.30;;;3.21;69.95
78431;BME280;67727;50.236;22.452;2023-12-20T03:29:09;98986.09;;;3.19;70.11
78431;BME280;67727;50.236;22.452;2023-12-20T03:31:35;98989.16;;;3.18;70.07
78431;BME280;67727;50.236;22.452;2023-12-20T03:34:01;98993.34;;;3.16;70.07
78431;BME280;67727;50.236;22.452;2023-12-20T03:36:27;98988.72;;;3.15;69.99
78431;BME280;67727;50.236;22.452;2023-12-20T03:38:53;98990.66;;;3.13;69.98
78431;BME280;67727;50.236;22.452;2023-12-20T03:41:20;98992.63;;;3.11;69.83
78431;BME280;67727;50.236;22.452;2023-12-20T03:43:46;98994.87;;;3.10;70.09
78431;BME280;67727;50.236;22.452;2023-12-20T03:46:12;98994.39;;;3.07;69.74
78431;BME280;67727;50.236;22.452;2023-12-20T03:48:39;98994.77;;;3.05;69.99
78431;BME280;67727;50.236;22.452;2023-12-20T03:51:05;98994.08;;;3.03;70.06
78431;BME280;67727;50.236;22.452;2023-12-20T03:53:31;98995.19;;;3.03;70.14
78431;BME280;67727;50.236;22.452;2023-12-20T03:55:57;98990.58;;;2.99;70.08
78431;BME280;67727;50.236;22.452;2023-12-20T03:58:23;98994.17;;;2.98;70.11
78431;BME280;67727;50.236;22.452;2023-12-20T04:00:50;98990.34;;;2.96;70.15
78431;BME280;67727;50.236;22.452;2023-12-20T04:03:16;98986.27;;;2.95;70.25
78431;BME280;67727;50.236;22.452;2023-12-20T04:05:42;98985.58;;;2.95;70.26
78431;BME280;67727;50.236;22.452;2023-12-20T04:08:09;98979.10;;;2.95;70.21
78431;BME280;67727;50.236;22.452;2023-12-20T04:10:35;98976.60;;;2.98;70.39
78431;BME280;67727;50.236;22.452;2023-12-20T04:13:04;98979.70;;;3.00;70.16
78431;BME280;67727;50.236;22.452;2023-12-20T04:15:30;98979.57;;;3.02;69.90
78431;BME280;67727;50.236;22.452;2023-12-20T04:17:56;98975.48;;;3.02;69.73
78431;BME280;67727;50.236;22.452;2023-12-20T04:20:22;98973.84;;;3.01;69.90
78431;BME280;67727;50.236;22.452;2023-12-20T04:22:49;98974.55;;;2.99;69.77
78431;BME280;67727;50.236;22.452;2023-12-20T04:25:15;98975.95;;;2.97;69.66
78431;BME280;67727;50.236;22.452;2023-12-20T04:27:41;98982.33;;;2.94;70.08
78431;BME280;67727;50.236;22.452;2023-12-20T04:30:08;98980.34;;;2.91;70.23
78431;BME280;67727;50.236;22.452;2023-12-20T04:32:35;98987.17;;;2.89;70.14
78431;BME280;67727;50.236;22.452;2023-12-20T04:35:01;98988.33;;;2.86;70.15
78431;BME280;67727;50.236;22.452;2023-12-20T04:37:27;98986.88;;;2.85;69.87
78431;BME280;67727;50.236;22.452;2023-12-20T04:39:53;98985.89;;;2.85;70.01
78431;BME280;67727;50.236;22.452;2023-12-20T04:42:19;98983.80;;;2.85;70.09
78431;BME280;67727;50.236;22.452;2023-12-20T04:44:45;98987.08;;;2.85;70.10
78431;BME280;67727;50.236;22.452;2023-12-20T04:47:12;98984.45;;;2.85;70.38
78431;BME280;67727;50.236;22.452;2023-12-20T04:49:38;98986.33;;;2.85;70.54
78431;BME280;67727;50.236;22.452;2023-12-20T04:52:04;98983.13;;;2.84;70.54
78431;BME280;67727;50.236;22.452;2023-12-20T04:54:31;98986.13;;;2.84;70.42
78431;BME280;67727;50.236;22.452;2023-12-20T04:56:58;98984.73;;;2.82;70.88
78431;BME280;67727;50.236;22.452;2023-12-20T04:59:24;98978.34;;;2.80;70.56
78431;BME280;67727;50.236;22.452;2023-12-20T05:01:50;98978.02;;;2.78;70.75
78431;BME280;67727;50.236;22.452;2023-12-20T05:04:16;98978.23;;;2.75;70.39
78431;BME280;67727;50.236;22.452;2023-12-20T05:06:42;98977.27;;;2.72;70.53
78431;BME280;67727;50.236;22.452;2023-12-20T05:09:08;98973.19;;;2.69;70.83
78431;BME280;67727;50.236;22.452;2023-12-20T05:11:35;98974.92;;;2.68;70.49
78431;BME280;67727;50.236;22.452;2023-12-20T05:14:01;98975.15;;;2.66;70.72
78431;BME280;67727;50.236;22.452;2023-12-20T05:16:27;98973.05;;;2.65;70.90
78431;BME280;67727;50.236;22.452;2023-12-20T05:18:53;98969.38;;;2.67;70.42
78431;BME280;67727;50.236;22.452;2023-12-20T05:21:20;98968.67;;;2.69;70.73
78431;BME280;67727;50.236;22.452;2023-12-20T05:23:47;98971.86;;;2.70;70.24
78431;BME280;67727;50.236;22.452;2023-12-20T05:26:13;98970.36;;;2.72;70.51
78431;BME280;67727;50.236;22.452;2023-12-20T05:28:39;98969.70;;;2.71;70.69
78431;BME280;67727;50.236;22.452;2023-12-20T05:31:05;98972.36;;;2.71;70.58
78431;BME280;67727;50.236;22.452;2023-12-20T05:33:32;98973.95;;;2.69;70.47
78431;BME280;67727;50.236;22.452;2023-12-20T05:35:59;98981.02;;;2.66;70.59
78431;BME280;67727;50.236;22.452;2023-12-20T05:38:25;98985.27;;;2.63;71.02
78431;BME280;67727;50.236;22.452;2023-12-20T05:40:51;98986.91;;;2.61;70.77
78431;BME280;67727;50.236;22.452;2023-12-20T05:43:18;98984.77;;;2.58;70.92
78431;BME280;67727;50.236;22.452;2023-12-20T05:45:44;98982.02;;;2.55;71.00
78431;BME280;67727;50.236;22.452;2023-12-20T05:48:10;98978.85;;;2.54;71.34
78431;BME280;67727;50.236;22.452;2023-12-20T05:50:36;98975.40;;;2.53;71.33
78431;BME280;67727;50.236;22.452;2023-12-20T05:53:02;98976.60;;;2.56;71.36
78431;BME280;67727;50.236;22.452;2023-12-20T05:55:28;98979.16;;;2.58;71.07
78431;BME280;67727;50.236;22.452;2023-12-20T05:57:54;98972.46;;;2.61;71.19
78431;BME280;67727;50.236;22.452;2023-12-20T06:00:21;98974.28;;;2.63;71.06
78431;BME280;67727;50.236;22.452;2023-12-20T06:02:47;98970.54;;;2.64;70.97
78431;BME280;67727;50.236;22.452;2023-12-20T06:05:13;98976.63;;;2.66;71.08
78431;BME280;67727;50.236;22.452;2023-12-20T06:07:39;98978.73;;;2.68;71.08
78431;BME280;67727;50.236;22.452;2023-12-20T06:10:05;98978.09;;;2.69;70.78
78431;BME280;67727;50.236;22.452;2023-12-20T06:12:32;98971.92;;;2.70;71.03
78431;BME280;67727;50.236;22.452;2023-12-20T06:14:59;98976.52;;;2.71;70.80
78431;BME280;67727;50.236;22.452;2023-12-20T06:17:25;98975.10;;;2.71;70.96
78431;BME280;67727;50.236;22.452;2023-12-20T06:19:52;98972.89;;;2.71;70.88
78431;BME280;67727;50.236;22.452;2023-12-20T06:22:18;98970.48;;;2.70;71.06
78431;BME280;67727;50.236;22.452;2023-12-20T06:24:44;98975.23;;;2.70;71.12
78431;BME280;67727;50.236;22.452;2023-12-20T06:27:10;98975.89;;;2.70;71.08
78431;BME280;67727;50.236;22.452;2023-12-20T06:29:37;98981.09;;;2.73;70.93
78431;BME280;67727;50.236;22.452;2023-12-20T06:32:03;98982.42;;;2.75;70.98
78431;BME280;67727;50.236;22.452;2023-12-20T06:34:30;98979.63;;;2.79;71.50
78431;BME280;67727;50.236;22.452;2023-12-20T06:36:56;98978.14;;;2.83;71.17
78431;BME280;67727;50.236;22.452;2023-12-20T06:39:22;98977.14;;;2.87;70.72
78431;BME280;67727;50.236;22.452;2023-12-20T06:41:48;98974.80;;;2.89;70.73
78431;BME280;67727;50.236;22.452;2023-12-20T06:44:14;98968.33;;;2.91;71.01
78431;BME280;67727;50.236;22.452;2023-12-20T06:46:41;98968.55;;;2.93;70.89
78431;BME280;67727;50.236;22.452;2023-12-20T06:49:07;98969.52;;;2.92;70.53
78431;BME280;67727;50.236;22.452;2023-12-20T06:51:33;98971.34;;;2.91;70.90
78431;BME280;67727;50.236;22.452;2023-12-20T06:53:59;98970.67;;;2.90;70.89
78431;BME280;67727;50.236;22.452;2023-12-20T06:56:26;98973.33;;;2.90;70.93
78431;BME280;67727;50.236;22.452;2023-12-20T06:58:52;98974.91;;;2.90;70.72
78431;BME280;67727;50.236;22.452;2023-12-20T07:01:18;98978.90;;;2.90;70.67
78431;BME280;67727;50.236;22.452;2023-12-20T07:03:44;98980.67;;;2.92;70.83
78431;BME280;67727;50.236;22.452;2023-12-20T07:06:11;98980.58;;;2.92;70.76
78431;BME280;67727;50.236;22.452;2023-12-20T07:08:37;98977.46;;;2.94;70.73
78431;BME280;67727;50.236;22.452;2023-12-20T07:11:03;98977.55;;;2.97;70.69
78431;BME280;67727;50.236;22.452;2023-12-20T07:13:30;98974.85;;;3.02;70.82
78431;BME280;67727;50.236;22.452;2023-12-20T07:15:56;98987.45;;;3.07;70.46
78431;BME280;67727;50.236;22.452;2023-12-20T07:18:24;98985.64;;;3.11;70.72
78431;BME280;67727;50.236;22.452;2023-12-20T07:20:50;98983.04;;;3.16;70.60
78431;BME280;67727;50.236;22.452;2023-12-20T07:23:16;98983.67;;;3.20;70.46
78431;BME280;67727;50.236;22.452;2023-12-20T07:25:42;98984.40;;;3.24;70.26
78431;BME280;67727;50.236;22.452;2023-12-20T07:28:08;98978.60;;;3.26;69.91
78431;BME280;67727;50.236;22.452;2023-12-20T07:30:35;98976.28;;;3.27;69.55
78431;BME280;67727;50.236;22.452;2023-12-20T07:33:01;98977.56;;;3.26;69.87
78431;BME280;67727;50.236;22.452;2023-12-20T07:35:28;98980.02;;;3.26;69.41
78431;BME280;67727;50.236;22.452;2023-12-20T07:37:54;98979.32;;;3.26;69.65
78431;BME280;67727;50.236;22.452;2023-12-20T07:40:20;98982.73;;;3.25;69.26
78431;BME280;67727;50.236;22.452;2023-12-20T07:42:47;98982.31;;;3.24;69.27
78431;BME280;67727;50.236;22.452;2023-12-20T07:45:13;98977.97;;;3.22;68.98
78431;BME280;67727;50.236;22.452;2023-12-20T07:47:39;98981.25;;;3.20;69.04
78431;BME280;67727;50.236;22.452;2023-12-20T07:50:07;98980.57;;;3.20;69.17
78431;BME280;67727;50.236;22.452;2023-12-20T07:52:33;98975.51;;;3.22;69.24
78431;BME280;67727;50.236;22.452;2023-12-20T07:54:59;98978.25;;;3.24;69.08
78431;BME280;67727;50.236;22.452;2023-12-20T07:57:28;98979.14;;;3.28;68.95
78431;BME280;67727;50.236;22.452;2023-12-20T07:59:55;98978.58;;;3.32;68.90
78431;BME280;67727;50.236;22.452;2023-12-20T08:02:21;98983.23;;;3.34;69.30
78431;BME280;67727;50.236;22.452;2023-12-20T08:04:48;98984.04;;;3.37;69.25
78431;BME280;67727;50.236;22.452;2023-12-20T08:07:15;98981.81;;;3.38;69.05
78431;BME280;67727;50.236;22.452;2023-12-20T08:09:43;98978.67;;;3.40;69.05
78431;BME280;67727;50.236;22.452;2023-12-20T08:12:10;98983.03;;;3.40;68.92
78431;BME280;67727;50.236;22.452;2023-12-20T08:14:36;98979.37;;;3.40;68.97
78431;BME280;67727;50.236;22.452;2023-12-20T08:17:03;98980.41;;;3.40;68.93
78431;BME280;67727;50.236;22.452;2023-12-20T08:19:29;98972.63;;;3.39;68.86
78431;BME280;67727;50.236;22.452;2023-12-20T08:21:55;98970.95;;;3.40;69.17
78431;BME280;67727;50.236;22.452;2023-12-20T08:24:21;98967.45;;;3.40;69.05
78431;BME280;67727;50.236;22.452;2023-12-20T08:26:47;98958.45;;;3.39;69.28
78431;BME280;67727;50.236;22.452;2023-12-20T08:29:14;98961.52;;;3.40;68.98
78431;BME280;67727;50.236;22.452;2023-12-20T08:31:40;98961.27;;;3.41;69.68
78431;BME280;67727;50.236;22.452;2023-12-20T08:34:06;98962.42;;;3.43;69.79
78431;BME280;67727;50.236;22.452;2023-12-20T08:36:33;98971.64;;;3.46;69.56
78431;BME280;67727;50.236;22.452;2023-12-20T08:38:59;98970.67;;;3.48;69.73
78431;BME280;67727;50.236;22.452;2023-12-20T08:41:26;98967.85;;;3.50;69.54
78431;BME280;67727;50.236;22.452;2023-12-20T08:43:53;98973.89;;;3.51;69.74
78431;BME280;67727;50.236;22.452;2023-12-20T08:46:19;98971.39;;;3.51;69.81
78431;BME280;67727;50.236;22.452;2023-12-20T08:48:45;98969.52;;;3.51;69.78
78431;BME280;67727;50.236;22.452;2023-12-20T08:51:12;98973.83;;;3.52;69.96
78431;BME280;67727;50.236;22.452;2023-12-20T08:53:39;98970.06;;;3.53;70.17
78431;BME280;67727;50.236;22.452;2023-12-20T08:56:05;98964.63;;;3.53;70.03
78431;BME280;67727;50.236;22.452;2023-12-20T08:58:31;98956.97;;;3.54;70.20
78431;BME280;67727;50.236;22.452;2023-12-20T09:00:59;98958.61;;;3.55;70.03
78431;BME280;67727;50.236;22.452;2023-12-20T09:03:25;98955.30;;;3.55;70.04
78431;BME280;67727;50.236;22.452;2023-12-20T09:05:52;98956.16;;;3.55;70.03
78431;BME280;67727;50.236;22.452;2023-12-20T09:08:18;98955.34;;;3.57;69.98
78431;BME280;67727;50.236;22.452;2023-12-20T09:10:44;98953.70;;;3.58;70.41
78431;BME280;67727;50.236;22.452;2023-12-20T09:13:12;98954.23;;;3.62;70.57
78431;BME280;67727;50.236;22.452;2023-12-20T09:15:38;98947.52;;;3.66;70.76
78431;BME280;67727;50.236;22.452;2023-12-20T09:18:05;98946.98;;;3.71;70.60
78431;BME280;67727;50.236;22.452;2023-12-20T09:20:31;98942.20;;;3.77;70.24
78431;BME280;67727;50.236;22.452;2023-12-20T09:22:58;98938.73;;;3.82;70.21
78431;BME280;67727;50.236;22.452;2023-12-20T09:25:25;98938.54;;;3.87;70.22
78431;BME280;67727;50.236;22.452;2023-12-20T09:27:52;98937.34;;;3.92;69.78
78431;BME280;67727;50.236;22.452;2023-12-20T09:30:18;98929.66;;;3.96;69.81
78431;BME280;67727;50.236;22.452;2023-12-20T09:32:45;98926.05;;;3.99;69.66
78431;BME280;67727;50.236;22.452;2023-12-20T09:35:11;98922.84;;;4.01;69.90
78431;BME280;67727;50.236;22.452;2023-12-20T09:37:38;98921.01;;;4.01;69.99
78431;BME280;67727;50.236;22.452;2023-12-20T09:40:10;98920.37;;;4.03;69.80
78431;BME280;67727;50.236;22.452;2023-12-20T09:42:58;98920.17;;;4.03;70.08
78431;BME280;67727;50.236;22.452;2023-12-20T09:45:25;98920.48;;;4.03;70.07
78431;BME280;67727;50.236;22.452;2023-12-20T09:47:53;98917.02;;;4.03;70.26
78431;BME280;67727;50.236;22.452;2023-12-20T09:50:21;98913.14;;;4.04;70.34
78431;BME280;67727;50.236;22.452;2023-12-20T09:52:51;98915.79;;;4.03;70.26
78431;BME280;67727;50.236;22.452;2023-12-20T09:55:19;98914.33;;;4.04;70.20
78431;BME280;67727;50.236;22.452;2023-12-20T09:57:46;98910.23;;;4.05;70.44
78431;BME280;67727;50.236;22.452;2023-12-20T10:00:13;98909.86;;;4.05;70.30
78431;BME280;67727;50.236;22.452;2023-12-20T10:03:01;98910.75;;;4.05;70.36
78431;BME280;67727;50.236;22.452;2023-12-20T10:05:30;98908.09;;;4.05;70.62
78431;BME280;67727;50.236;22.452;2023-12-20T10:07:57;98908.11;;;4.08;70.66
78431;BME280;67727;50.236;22.452;2023-12-20T10:10:24;98905.39;;;4.13;70.28
78431;BME280;67727;50.236;22.452;2023-12-20T10:13:07;98904.73;;;4.18;70.30
78431;BME280;67727;50.236;22.452;2023-12-20T10:15:35;98911.11;;;4.24;69.96
78431;BME280;67727;50.236;22.452;2023-12-20T10:18:02;98912.29;;;4.28;69.99
78431;BME280;67727;50.236;22.452;2023-12-20T10:20:30;98908.58;;;4.31;69.86
78431;BME280;67727;50.236;22.452;2023-12-20T10:23:00;98910.06;;;4.34;69.70
78431;BME280;67727;50.236;22.452;2023-12-20T10:25:27;98915.36;;;4.37;69.61
78431;BME280;67727;50.236;22.452;2023-12-20T10:28:11;98915.46;;;4.39;70.15
78431;BME280;67727;50.236;22.452;2023-12-20T10:30:38;98910.84;;;4.42;70.11
78431;BME280;67727;50.236;22.452;2023-12-20T10:33:08;98909.63;;;4.44;69.90
78431;BME280;67727;50.236;22.452;2023-12-20T10:35:35;98906.25;;;4.46;69.90
78431;BME280;67727;50.236;22.452;2023-12-20T10:38:05;98904.55;;;4.47;70.12
78431;BME280;67727;50.236;22.452;2023-12-20T10:40:36;98905.33;;;4.48;70.37
78431;BME280;67727;50.236;22.452;2023-12-20T10:43:03;98906.93;;;4.51;70.38
78431;BME280;67727;50.236;22.452;2023-12-20T10:45:30;98907.39;;;4.54;70.43
78431;BME280;67727;50.236;22.452;2023-12-20T10:47:57;98899.48;;;4.57;70.49
78431;BME280;67727;50.236;22.452;2023-12-20T10:50:26;98897.77;;;4.60;70.50
78431;BME280;67727;50.236;22.452;2023-12-20T10:52:54;98898.26;;;4.62;70.88
78431;BME280;67727;50.236;22.452;2023-12-20T10:55:22;98897.32;;;4.64;71.29
78431;BME280;67727;50.236;22.452;2023-12-20T10:57:52;98896.10;;;4.66;71.56
78431;BME280;67727;50.236;22.452;2023-12-20T11:00:21;98898.13;;;4.65;72.26
78431;BME280;67727;50.236;22.452;2023-12-20T11:02:49;98895.15;;;4.63;72.57
78431;BME280;67727;50.236;22.452;2023-12-20T11:05:42;98897.75;;;4.62;73.10
78431;BME280;67727;50.236;22.452;2023-12-20T11:08:17;98888.00;;;4.59;73.46
78431;BME280;67727;50.236;22.452;2023-12-20T11:11:01;98882.03;;;4.60;73.97
78431;BME280;67727;50.236;22.452;2023-12-20T11:13:37;98883.02;;;4.60;74.38
78431;BME280;67727;50.236;22.452;2023-12-20T11:16:06;98883.21;;;4.60;74.59
78431;BME280;67727;50.236;22.452;2023-12-20T11:18:33;98877.77;;;4.58;74.55
78431;BME280;67727;50.236;22.452;2023-12-20T11:21:06;98870.81;;;4.58;74.72
78431;BME280;67727;50.236;22.452;2023-12-20T11:23:33;98870.29;;;4.58;74.52
78431;BME280;67727;50.236;22.452;2023-12-20T11:26:01;98869.27;;;4.56;74.38
78431;BME280;67727;50.236;22.452;2023-12-20T11:28:29;98863.73;;;4.54;74.57
78431;BME280;67727;50.236;22.452;2023-12-20T11:30:57;98859.88;;;4.52;74.67
78431;BME280;67727;50.236;22.452;2023-12-20T11:33:30;98853.89;;;4.49;74.90
78431;BME280;67727;50.236;22.452;2023-12-20T11:35:57;98854.52;;;4.47;74.95
78431;BME280;67727;50.236;22.452;2023-12-20T11:38:25;98848.98;;;4.43;74.89
78431;BME280;67727;50.236;22.452;2023-12-20T11:40:54;98846.83;;;4.40;75.37
78431;BME280;67727;50.236;22.452;2023-12-20T11:43:30;98843.84;;;4.39;75.12
78431;BME280;67727;50.236;22.452;2023-12-20T11:46:05;98848.20;;;4.37;75.23
78431;BME280;67727;50.236;22.452;2023-12-20T11:48:36;98846.86;;;4.36;75.32
78431;BME280;67727;50.236;22.452;2023-12-20T11:51:12;98846.23;;;4.37;75.50
78431;BME280;67727;50.236;22.452;2023-12-20T11:53:41;98840.83;;;4.39;75.67
78431;BME280;67727;50.236;22.452;2023-12-20T11:56:08;98836.23;;;4.41;75.72
78431;BME280;67727;50.236;22.452;2023-12-20T11:58:35;98834.04;;;4.40;75.60
78431;BME280;67727;50.236;22.452;2023-12-20T12:01:02;98838.11;;;4.38;75.71
78431;BME280;67727;50.236;22.452;2023-12-20T12:03:30;98833.49;;;4.35;76.07
78431;BME280;67727;50.236;22.452;2023-12-20T12:05:57;98833.02;;;4.30;76.22
78431;BME280;67727;50.236;22.452;2023-12-20T12:08:24;98826.63;;;4.24;76.41
78431;BME280;67727;50.236;22.452;2023-12-20T12:10:50;98821.33;;;4.18;76.87
78431;BME280;67727;50.236;22.452;2023-12-20T12:13:16;98818.32;;;4.13;77.05
78431;BME280;67727;50.236;22.452;2023-12-20T12:15:43;98824.91;;;4.10;77.23
78431;BME280;67727;50.236;22.452;2023-12-20T12:18:10;98827.33;;;4.06;77.76
78431;BME280;67727;50.236;22.452;2023-12-20T12:20:37;98829.73;;;4.04;77.76
78431;BME280;67727;50.236;22.452;2023-12-20T12:23:04;98830.02;;;4.01;78.03
78431;BME280;67727;50.236;22.452;2023-12-20T12:25:35;98832.71;;;4.00;78.54
78431;BME280;67727;50.236;22.452;2023-12-20T12:28:02;98836.73;;;3.98;78.68
78431;BME280;67727;50.236;22.452;2023-12-20T12:30:28;98838.56;;;3.96;78.74
78431;BME280;67727;50.236;22.452;2023-12-20T12:32:57;98835.79;;;3.94;78.78
78431;BME280;67727;50.236;22.452;2023-12-20T12:35:24;98838.99;;;3.93;78.91
78431;BME280;67727;50.236;22.452;2023-12-20T12:37:51;98834.92;;;3.91;79.29
78431;BME280;67727;50.236;22.452;2023-12-20T12:40:17;98834.96;;;3.87;79.20
78431;BME280;67727;50.236;22.452;2023-12-20T12:42:44;98833.16;;;3.84;79.66
78431;BME280;67727;50.236;22.452;2023-12-20T12:45:11;98832.34;;;3.80;79.64
78431;BME280;67727;50.236;22.452;2023-12-20T12:47:38;98827.16;;;3.78;79.79
78431;BME280;67727;50.236;22.452;2023-12-20T12:50:05;98823.39;;;3.75;80.29
78431;BME280;67727;50.236;22.452;2023-12-20T12:52:31;98824.36;;;3.73;80.43
78431;BME280;67727;50.236;22.452;2023-12-20T12:54:57;98821.66;;;3.68;80.67
78431;BME280;67727;50.236;22.452;2023-12-20T12:57:23;98824.29;;;3.65;80.75
78431;BME280;67727;50.236;22.452;2023-12-20T12:59:50;98826.48;;;3.62;80.97